Time;durP1;ratioP1;P1;durP2;ratioP2;P2;SDS_P1;SDS_P2;PMS_P1;PMS_P2;Temp;Humidity;BMP_temperature;BMP_pressure;BME280_temperature;BME280_humidity;BME280_pressure;Samples;Min_cycle;Max_cycle;Signal;HPM_P1;HPM_P2
2022/10/28 00:00:53;;;;;;;15.73;8.60;;;14.20;86.40;;;;;;5004430;28;20507;-77
2022/10/28 00:03:21;;;;;;;12.60;7.40;;;14.20;86.50;;;;;;5000343;28;20449;-79
2022/10/28 00:05:49;;;;;;;13.20;8.13;;;14.20;86.60;;;;;;4998177;28;20528;-77
2022/10/28 00:08:18;;;;;;;15.90;9.07;;;14.20;86.50;;;;;;5001486;28;20457;-79
2022/10/28 00:10:46;;;;;;;29.93;15.60;;;14.20;86.60;;;;;;5001884;28;20802;-79
2022/10/28 00:13:14;;;;;;;19.20;12.13;;;14.20;86.50;;;;;;4998041;28;21014;-77
2022/10/28 00:15:42;;;;;;;19.47;10.80;;;14.20;86.40;;;;;;5002014;28;20469;-78
2022/10/28 00:18:10;;;;;;;35.43;18.63;;;14.10;86.50;;;;;;5001782;28;20459;-77
2022/10/28 00:20:38;;;;;;;20.93;11.40;;;14.10;86.40;;;;;;5000631;28;20456;-78
2022/10/28 00:23:06;;;;;;;13.13;7.63;;;14.10;86.40;;;;;;5004943;28;20457;-77
2022/10/28 00:25:35;;;;;;;11.83;7.07;;;14.10;86.30;;;;;;5001910;28;20562;-76
2022/10/28 00:28:03;;;;;;;8.90;6.10;;;14.10;86.20;;;;;;5002126;28;20526;-79
2022/10/28 00:30:31;;;;;;;9.80;6.13;;;14.10;86.10;;;;;;5002862;28;21026;-79
2022/10/28 00:32:59;;;;;;;16.50;11.30;;;14.00;86.20;;;;;;5000872;28;20461;-77
2022/10/28 00:35:27;;;;;;;44.70;23.30;;;14.00;86.20;;;;;;5001427;28;20473;-77
2022/10/28 00:37:55;;;;;;;32.47;18.60;;;14.00;86.20;;;;;;5005954;28;20538;-79
2022/10/28 00:40:23;;;;;;;18.63;9.47;;;14.00;86.20;;;;;;5003215;28;20491;-77
2022/10/28 00:42:52;;;;;;;9.07;6.07;;;14.00;86.20;;;;;;5004885;28;20453;-78
2022/10/28 00:45:21;;;;;;;12.10;7.00;;;14.00;86.10;;;;;;5002492;28;20477;-76
2022/10/28 00:47:54;;;;;;;9.97;6.13;;;14.00;86.00;;;;;;5005871;28;20523;-77
2022/10/28 00:50:35;;;;;;;13.07;6.30;;;14.00;86.00;;;;;;4999621;28;20451;-77
2022/10/28 00:53:06;;;;;;;7.37;4.90;;;14.00;85.90;;;;;;5008710;28;20459;-78
2022/10/28 00:55:35;;;;;;;8.80;4.60;;;14.00;85.90;;;;;;4998235;28;20462;-78
2022/10/28 00:58:06;;;;;;;10.43;5.80;;;14.00;85.90;;;;;;5020405;28;20468;-77
2022/10/28 01:00:35;;;;;;;9.17;5.50;;;13.90;85.80;;;;;;5003481;28;20456;-79
2022/10/28 01:03:03;;;;;;;14.07;8.93;;;13.90;85.70;;;;;;5003942;28;20542;-78
2022/10/28 01:05:35;;;;;;;17.63;10.10;;;13.90;85.70;;;;;;4999930;28;20511;-77
2022/10/28 01:08:04;;;;;;;15.50;9.40;;;13.90;85.70;;;;;;5004131;28;20468;-79
2022/10/28 01:10:51;;;;;;;22.10;11.67;;;13.90;85.60;;;;;;4999369;28;20468;-78
2022/10/28 01:13:33;;;;;;;20.63;11.97;;;13.90;85.60;;;;;;5019380;28;20526;-78
2022/10/28 01:16:07;;;;;;;19.80;11.90;;;13.90;85.60;;;;;;4999420;28;20843;-79
2022/10/28 01:18:45;;;;;;;18.93;8.80;;;13.90;85.50;;;;;;4999166;28;20514;-79
2022/10/28 01:21:51;;;;;;;14.40;8.37;;;13.90;85.40;;;;;;4999803;28;20464;-77
2022/10/28 01:24:33;;;;;;;12.70;7.13;;;13.80;85.50;;;;;;4976059;28;20482;-77
2022/10/28 01:27:47;;;;;;;16.20;8.20;;;13.80;85.50;;;;;;5004931;28;20474;-79
2022/10/28 01:30:18;;;;;;;18.13;10.90;;;13.80;85.40;;;;;;5005908;28;20457;-78
2022/10/28 01:32:59;;;;;;;27.43;14.00;;;13.80;85.40;;;;;;4998470;28;20442;-77
2022/10/28 01:35:33;;;;;;;13.53;8.17;;;13.80;85.30;;;;;;4999098;28;20882;-79
2022/10/28 01:38:17;;;;;;;11.70;6.83;;;13.80;85.30;;;;;;4998745;28;20456;-77
2022/10/28 01:40:52;;;;;;;13.60;7.07;;;13.80;85.20;;;;;;5002065;28;20470;-79
2022/10/28 01:43:26;;;;;;;11.93;7.77;;;13.80;85.20;;;;;;4999850;28;20543;-79
2022/10/28 01:46:00;;;;;;;14.20;7.97;;;13.80;85.10;;;;;;5013419;28;20904;-79
2022/10/28 01:48:35;;;;;;;16.90;8.63;;;13.80;85.10;;;;;;5000136;28;20453;-77
2022/10/28 01:51:08;;;;;;;20.90;11.70;;;13.80;85.20;;;;;;4995426;28;20445;-79
2022/10/28 01:53:40;;;;;;;19.77;10.43;;;13.70;85.30;;;;;;4998192;28;20463;-77
2022/10/28 01:56:12;;;;;;;20.83;8.50;;;13.70;85.20;;;;;;5018356;28;21054;-78
2022/10/28 01:58:41;;;;;;;17.93;8.60;;;13.70;85.10;;;;;;5000772;28;20465;-77
2022/10/28 02:01:10;;;;;;;13.17;8.23;;;13.70;85.10;;;;;;5002177;28;20454;-79
2022/10/28 02:03:40;;;;;;;17.57;7.70;;;13.70;85.20;;;;;;4996241;28;20452;-78
2022/10/28 02:06:17;;;;;;;12.53;7.63;;;13.70;85.20;;;;;;4998965;28;20485;-78
2022/10/28 02:08:57;;;;;;;14.50;7.60;;;13.70;85.20;;;;;;4997423;28;20527;-78
2022/10/28 02:11:38;;;;;;;12.53;7.10;;;13.70;85.20;;;;;;5000225;28;20453;-78
2022/10/28 02:14:24;;;;;;;14.13;6.37;;;13.70;85.30;;;;;;4999341;28;20450;-78
2022/10/28 02:17:00;;;;;;;15.17;5.17;;;13.70;85.30;;;;;;5003020;28;20450;-78
2022/10/28 02:19:38;;;;;;;8.97;5.70;;;13.70;85.20;;;;;;5002292;28;20826;-78
2022/10/28 02:22:15;;;;;;;11.40;5.67;;;13.70;85.30;;;;;;5000809;28;20448;-78
2022/10/28 02:24:50;;;;;;;7.67;4.93;;;13.70;85.20;;;;;;5019418;28;20530;-78
2022/10/28 02:27:27;;;;;;;10.70;5.87;;;13.70;85.20;;;;;;4995559;28;20920;-79
2022/10/28 02:30:01;;;;;;;10.37;5.43;;;13.70;85.20;;;;;;5002872;28;21392;-78
2022/10/28 02:32:37;;;;;;;11.73;7.00;;;13.70;85.20;;;;;;5003116;28;20510;-78
2022/10/28 02:35:11;;;;;;;10.47;6.30;;;13.70;85.20;;;;;;5002340;28;20473;-78
2022/10/28 02:37:41;;;;;;;10.63;6.00;;;13.70;85.10;;;;;;5000608;28;20499;-79
2022/10/28 02:40:15;;;;;;;9.90;6.70;;;13.70;85.10;;;;;;5001645;28;20470;-78
2022/10/28 02:42:48;;;;;;;9.50;6.30;;;13.70;85.00;;;;;;5000368;28;20457;-78
2022/10/28 02:45:20;;;;;;;9.60;6.20;;;13.70;85.10;;;;;;5001101;28;21222;-78
2022/10/28 02:47:57;;;;;;;19.83;6.90;;;13.60;85.10;;;;;;5004087;28;20556;-78
2022/10/28 02:50:31;;;;;;;13.40;6.30;;;13.70;85.20;;;;;;5000808;28;20453;-79
2022/10/28 02:53:02;;;;;;;10.83;6.47;;;13.70;85.20;;;;;;5002366;28;20454;-78
2022/10/28 02:55:34;;;;;;;9.10;6.10;;;13.70;85.20;;;;;;5019196;28;20512;-78
2022/10/28 02:58:03;;;;;;;8.00;6.03;;;13.70;85.30;;;;;;5009518;28;20464;-78
2022/10/28 03:00:31;;;;;;;9.07;5.60;;;13.70;85.30;;;;;;5008606;28;20806;-78
2022/10/28 03:02:59;;;;;;;10.40;7.57;;;13.70;85.30;;;;;;5002980;28;20458;-79
2022/10/28 03:05:28;;;;;;;10.30;6.83;;;13.70;85.30;;;;;;5020102;28;20489;-78
2022/10/28 03:07:56;;;;;;;11.30;7.07;;;13.70;85.30;;;;;;5009363;28;21226;-78
2022/10/28 03:10:24;;;;;;;12.63;7.33;;;13.80;85.20;;;;;;5008679;28;20503;-78
2022/10/28 03:12:52;;;;;;;16.00;7.67;;;13.80;85.20;;;;;;5003153;28;20462;-78
2022/10/28 03:15:20;;;;;;;11.67;8.20;;;13.80;85.20;;;;;;5005224;28;20468;-78
2022/10/28 03:17:48;;;;;;;12.87;7.03;;;13.80;85.20;;;;;;5000975;28;20454;-78
2022/10/28 03:20:16;;;;;;;11.10;7.77;;;13.80;85.30;;;;;;5002687;28;21044;-78
2022/10/28 03:22:45;;;;;;;11.87;7.70;;;13.80;85.20;;;;;;5005353;28;20461;-78
2022/10/28 03:25:13;;;;;;;11.07;7.10;;;13.80;85.20;;;;;;5017028;28;20489;-78
2022/10/28 03:27:41;;;;;;;10.23;6.73;;;13.80;85.20;;;;;;4998951;28;20519;-78
2022/10/28 03:30:10;;;;;;;8.80;5.80;;;13.80;85.20;;;;;;5005506;28;20460;-78
2022/10/28 03:32:41;;;;;;;10.07;6.63;;;13.80;85.20;;;;;;5016376;28;20464;-78
2022/10/28 03:35:09;;;;;;;10.20;6.83;;;13.80;85.20;;;;;;5002294;28;20483;-78
2022/10/28 03:37:37;;;;;;;9.20;6.30;;;13.80;85.20;;;;;;5017068;28;20903;-79
2022/10/28 03:40:08;;;;;;;10.33;7.20;;;13.80;85.20;;;;;;5003370;28;20536;-78
2022/10/28 03:42:36;;;;;;;10.37;6.53;;;13.80;85.20;;;;;;5001603;28;20448;-78
2022/10/28 03:45:08;;;;;;;8.37;5.70;;;13.80;85.20;;;;;;5019008;28;20919;-78
2022/10/28 03:47:36;;;;;;;9.93;6.20;;;13.80;85.20;;;;;;5004196;28;20915;-77
2022/10/28 03:50:05;;;;;;;9.30;6.20;;;13.80;85.30;;;;;;5016556;28;20460;-78
2022/10/28 03:52:33;;;;;;;10.27;6.23;;;13.80;85.40;;;;;;5001482;28;20523;-78
2022/10/28 03:55:01;;;;;;;10.10;5.33;;;13.90;85.30;;;;;;5004273;28;21006;-78
2022/10/28 03:57:32;;;;;;;7.10;4.60;;;13.80;85.10;;;;;;5000647;28;20449;-78
2022/10/28 04:00:00;;;;;;;7.40;4.90;;;13.80;85.20;;;;;;5000349;28;20472;-77
2022/10/28 04:02:38;;;;;;;8.80;5.30;;;13.80;85.30;;;;;;5000593;28;20480;-77
2022/10/28 04:05:07;;;;;;;11.33;7.20;;;13.70;85.50;;;;;;4999909;28;20474;-76
2022/10/28 04:07:35;;;;;;;10.60;7.47;;;13.70;85.60;;;;;;5002653;28;20476;-77
2022/10/28 04:10:03;;;;;;;7.40;5.40;;;13.70;85.70;;;;;;5005250;28;20515;-78
2022/10/28 04:12:32;;;;;;;7.57;5.37;;;13.70;85.70;;;;;;5002852;28;20464;-79
2022/10/28 04:15:01;;;;;;;9.13;5.90;;;13.70;85.70;;;;;;5000252;28;20541;-80
2022/10/28 04:17:28;;;;;;;9.50;5.30;;;13.70;85.80;;;;;;5009486;28;20445;-78
2022/10/28 04:19:56;;;;;;;7.17;4.90;;;13.70;86.00;;;;;;5005644;28;20524;-79
2022/10/28 04:22:24;;;;;;;8.40;5.30;;;13.70;86.10;;;;;;5011320;28;20460;-78
2022/10/28 04:24:53;;;;;;;6.80;4.50;;;13.80;86.10;;;;;;5007671;28;21138;-77
2022/10/28 04:27:21;;;;;;;8.83;6.27;;;13.80;86.10;;;;;;5008372;28;20488;-77
2022/10/28 04:29:50;;;;;;;7.27;5.10;;;13.90;86.10;;;;;;5015388;28;20516;-76
2022/10/28 04:32:18;;;;;;;7.60;5.20;;;13.90;86.00;;;;;;5009812;28;20519;-78
2022/10/28 04:34:46;;;;;;;8.63;5.37;;;13.90;86.00;;;;;;5010766;28;20540;-79
2022/10/28 04:37:14;;;;;;;9.20;5.37;;;14.00;86.00;;;;;;5008763;28;20464;-78
2022/10/28 04:39:47;;;;;;;7.80;5.67;;;14.00;86.00;;;;;;5008540;28;20479;-78
2022/10/28 04:42:15;;;;;;;9.17;6.00;;;14.00;86.00;;;;;;5005258;28;20995;-79
2022/10/28 04:44:43;;;;;;;7.73;4.67;;;14.00;86.00;;;;;;5000439;28;20472;-79
2022/10/28 04:47:12;;;;;;;7.87;5.43;;;14.00;86.00;;;;;;5001876;28;20453;-79
2022/10/28 04:49:40;;;;;;;8.37;5.63;;;14.00;85.90;;;;;;5001289;28;20450;-79
2022/10/28 04:52:08;;;;;;;8.40;4.70;;;14.00;85.90;;;;;;5002591;28;20453;-78
2022/10/28 04:54:42;;;;;;;8.20;4.93;;;14.00;85.90;;;;;;4999416;28;20477;-77
2022/10/28 04:57:10;;;;;;;9.30;6.47;;;14.00;86.00;;;;;;4999810;28;20460;-78
2022/10/28 04:59:38;;;;;;;7.80;5.90;;;14.00;85.80;;;;;;5005949;28;20468;-78
2022/10/28 05:02:06;;;;;;;9.70;6.60;;;13.90;86.00;;;;;;5001519;28;20467;-79
2022/10/28 05:04:36;;;;;;;10.93;7.30;;;13.90;86.20;;;;;;5001016;28;20916;-77
2022/10/28 05:07:04;;;;;;;11.27;8.13;;;13.90;86.10;;;;;;5004398;28;20466;-77
2022/10/28 05:09:32;;;;;;;14.53;9.50;;;13.90;86.00;;;;;;5000102;28;20516;-79
2022/10/28 05:12:00;;;;;;;12.30;7.70;;;13.90;86.10;;;;;;5001943;28;20452;-79
2022/10/28 05:14:27;;;;;;;11.43;7.10;;;13.80;86.40;;;;;;4999127;28;20464;-78
2022/10/28 05:16:55;;;;;;;12.80;7.80;;;13.90;86.40;;;;;;5002327;28;20460;-79
2022/10/28 05:19:23;;;;;;;11.77;6.90;;;13.90;86.50;;;;;;4999870;28;20458;-78
2022/10/28 05:21:53;;;;;;;9.53;5.90;;;13.90;86.50;;;;;;4998093;28;20453;-78
2022/10/28 05:24:21;;;;;;;10.10;6.30;;;14.00;86.60;;;;;;4994184;28;20477;-78
2022/10/28 05:26:48;;;;;;;11.80;5.63;;;14.00;86.60;;;;;;5019360;28;20997;-77
2022/10/28 05:29:18;;;;;;;13.60;5.30;;;14.00;86.50;;;;;;4999768;28;20465;-77
2022/10/28 05:31:46;;;;;;;9.10;5.00;;;14.00;86.60;;;;;;5001615;28;20456;-77
2022/10/28 05:34:14;;;;;;;10.37;4.90;;;14.10;86.60;;;;;;4998936;28;20473;-77
2022/10/28 05:36:42;;;;;;;12.87;6.40;;;14.10;86.60;;;;;;5003316;28;21139;-77
2022/10/28 05:39:12;;;;;;;10.03;6.07;;;14.10;86.50;;;;;;5010144;28;20839;-77
2022/10/28 05:41:40;;;;;;;9.10;5.77;;;14.10;86.40;;;;;;4998275;28;21058;-77
2022/10/28 05:44:08;;;;;;;8.33;5.83;;;14.10;86.40;;;;;;4997406;28;20455;-77
2022/10/28 05:46:36;;;;;;;9.00;5.97;;;14.00;86.60;;;;;;5001316;28;21006;-77
2022/10/28 05:49:04;;;;;;;9.50;6.23;;;14.10;86.70;;;;;;5006784;28;20476;-77
2022/10/28 05:51:32;;;;;;;8.43;5.70;;;14.10;86.70;;;;;;5021579;28;20499;-77
2022/10/28 05:54:00;;;;;;;15.73;8.03;;;14.10;86.60;;;;;;5001906;28;20452;-77
2022/10/28 05:56:29;;;;;;;12.20;8.53;;;14.10;86.60;;;;;;4999898;28;20947;-79
2022/10/28 05:58:57;;;;;;;14.63;9.90;;;14.10;86.70;;;;;;5003278;28;21001;-78
2022/10/28 06:01:25;;;;;;;20.33;13.13;;;14.10;86.80;;;;;;4997580;28;20461;-78
2022/10/28 06:03:53;;;;;;;12.70;8.03;;;14.10;86.70;;;;;;4996716;28;20451;-77
2022/10/28 06:06:21;;;;;;;15.13;7.90;;;14.10;86.60;;;;;;4995906;28;20475;-77
2022/10/28 06:08:49;;;;;;;13.50;7.80;;;14.10;86.70;;;;;;5008920;28;20477;-78
2022/10/28 06:11:17;;;;;;;14.13;7.47;;;14.10;86.70;;;;;;5006994;28;20457;-77
2022/10/28 06:13:47;;;;;;;12.80;7.70;;;14.00;86.60;;;;;;5002630;28;20471;-77
2022/10/28 06:16:15;;;;;;;12.20;8.10;;;14.00;86.60;;;;;;4998387;28;20531;-77
2022/10/28 06:18:43;;;;;;;14.13;9.67;;;14.00;86.70;;;;;;5000172;28;20456;-78
2022/10/28 06:21:11;;;;;;;14.07;10.33;;;13.90;86.70;;;;;;5000483;28;20460;-79
2022/10/28 06:23:39;;;;;;;15.23;9.80;;;13.90;86.80;;;;;;5008182;28;20471;-79
2022/10/28 06:26:07;;;;;;;21.13;10.50;;;13.90;86.90;;;;;;5001703;28;20476;-78
2022/10/28 06:28:35;;;;;;;15.67;9.30;;;13.90;87.10;;;;;;5001175;28;20486;-78
2022/10/28 06:31:05;;;;;;;13.83;9.00;;;14.00;87.10;;;;;;5016147;28;20455;-77
2022/10/28 06:33:33;;;;;;;11.00;7.80;;;14.00;87.10;;;;;;4999615;28;20455;-79
2022/10/28 06:36:01;;;;;;;13.03;7.80;;;14.00;87.10;;;;;;5017974;28;22221;-79
2022/10/28 06:38:30;;;;;;;10.17;7.60;;;14.10;87.10;;;;;;5002188;28;21207;-77
2022/10/28 06:40:59;;;;;;;11.33;6.80;;;14.10;87.10;;;;;;5007690;28;20476;-78
2022/10/28 06:43:27;;;;;;;9.50;6.03;;;14.10;87.00;;;;;;5005489;28;20518;-77
2022/10/28 06:45:56;;;;;;;8.63;6.10;;;14.10;87.00;;;;;;5003104;28;20504;-77
2022/10/28 06:48:25;;;;;;;11.70;6.57;;;14.10;87.00;;;;;;5019559;28;21221;-77
2022/10/28 06:50:55;;;;;;;8.30;5.43;;;14.10;87.10;;;;;;5001753;28;20452;-77
2022/10/28 06:53:23;;;;;;;12.13;6.20;;;14.10;87.00;;;;;;5006699;28;20457;-77
2022/10/28 06:55:55;;;;;;;8.70;5.40;;;14.20;87.10;;;;;;5001018;28;21048;-77
2022/10/28 06:58:23;;;;;;;10.97;6.90;;;14.20;87.10;;;;;;5001313;28;20911;-77
2022/10/28 07:00:52;;;;;;;10.13;6.77;;;14.20;87.00;;;;;;5005232;28;20950;-78
2022/10/28 07:03:20;;;;;;;13.33;6.83;;;14.20;87.10;;;;;;5004507;28;20508;-79
2022/10/28 07:05:50;;;;;;;12.20;7.70;;;14.20;87.10;;;;;;5009109;28;20509;-77
2022/10/28 07:08:18;;;;;;;9.97;7.90;;;14.30;87.00;;;;;;5017110;28;20462;-77
2022/10/28 07:10:54;;;;;;;22.60;16.07;;;14.30;87.00;;;;;;5008194;28;20457;-77
2022/10/28 07:13:22;;;;;;;12.80;8.90;;;14.30;87.10;;;;;;4995341;28;20441;-77
2022/10/28 07:15:54;;;;;;;9.13;7.53;;;14.30;87.10;;;;;;5005663;28;20485;-79
2022/10/28 07:18:24;;;;;;;13.23;9.80;;;14.30;87.00;;;;;;5021646;28;20456;-77
2022/10/28 07:20:53;;;;;;;27.70;16.50;;;14.30;87.00;;;;;;5005360;28;20445;-77
2022/10/28 07:23:21;;;;;;;36.37;24.80;;;14.30;86.90;;;;;;5001707;28;20461;-79
2022/10/28 07:25:53;;;;;;;33.90;21.50;;;14.30;87.00;;;;;;5003635;28;20476;-77
2022/10/28 07:28:21;;;;;;;30.10;20.00;;;14.30;87.10;;;;;;5001499;28;20488;-78
2022/10/28 07:30:49;;;;;;;22.90;16.37;;;14.30;87.10;;;;;;5022278;28;20539;-78
2022/10/28 07:33:18;;;;;;;30.10;16.67;;;14.30;87.00;;;;;;5000171;28;20452;-77
2022/10/28 07:35:46;;;;;;;15.20;8.40;;;14.30;87.10;;;;;;5003074;28;20531;-77
2022/10/28 07:38:15;;;;;;;12.57;9.90;;;14.30;87.10;;;;;;5005886;28;20448;-77
2022/10/28 07:40:44;;;;;;;14.33;10.33;;;14.30;87.00;;;;;;5005599;28;20462;-77
2022/10/28 07:43:11;;;;;;;21.60;11.90;;;14.30;87.10;;;;;;5017827;28;20469;-78
2022/10/28 07:45:39;;;;;;;15.90;11.03;;;14.30;87.10;;;;;;5000475;28;20479;-79
2022/10/28 07:48:07;;;;;;;16.73;10.60;;;14.30;87.10;;;;;;5006447;28;20487;-77
2022/10/28 07:50:35;;;;;;;15.03;10.20;;;14.30;87.30;;;;;;4999756;28;20477;-78
2022/10/28 07:53:03;;;;;;;13.93;9.40;;;14.30;87.40;;;;;;5000184;28;20965;-77
2022/10/28 07:55:33;;;;;;;18.87;9.40;;;14.40;87.50;;;;;;5001778;28;20522;-77
2022/10/28 07:58:00;;;;;;;18.73;9.30;;;14.40;87.40;;;;;;5020660;28;20511;-78
2022/10/28 08:00:28;;;;;;;12.30;8.50;;;14.50;87.50;;;;;;5004428;28;20452;-78
2022/10/28 08:02:57;;;;;;;12.07;8.43;;;14.60;87.50;;;;;;5022186;28;20460;-79
2022/10/28 08:05:24;;;;;;;15.33;8.97;;;14.60;87.50;;;;;;5002493;28;20496;-79
2022/10/28 08:07:52;;;;;;;14.07;9.53;;;14.60;87.50;;;;;;5001361;28;20500;-78
2022/10/28 08:10:20;;;;;;;14.67;9.80;;;14.70;87.50;;;;;;4999881;28;20482;-77
2022/10/28 08:12:50;;;;;;;12.93;9.40;;;14.80;87.50;;;;;;5005491;28;20994;-77
2022/10/28 08:15:22;;;;;;;15.63;8.73;;;14.80;87.60;;;;;;5005044;28;21257;-78
2022/10/28 08:17:52;;;;;;;13.10;9.33;;;14.80;87.70;;;;;;5001582;28;20610;-77
2022/10/28 08:20:20;;;;;;;14.20;9.20;;;14.90;87.70;;;;;;5004097;28;20457;-78
2022/10/28 08:22:49;;;;;;;16.43;10.50;;;14.90;87.60;;;;;;5003731;28;20544;-79
2022/10/28 08:25:17;;;;;;;15.33;9.77;;;15.00;87.60;;;;;;5001117;28;20989;-80
2022/10/28 08:27:45;;;;;;;11.50;7.87;;;15.00;87.60;;;;;;5004863;28;20453;-79
2022/10/28 08:30:14;;;;;;;14.80;9.20;;;15.10;87.60;;;;;;5000335;28;20479;-77
2022/10/28 08:32:42;;;;;;;15.33;10.73;;;15.10;87.60;;;;;;5001900;28;20444;-78
2022/10/28 08:35:10;;;;;;;13.80;9.90;;;15.10;87.50;;;;;;5004652;28;20484;-79
2022/10/28 08:37:38;;;;;;;15.53;10.43;;;15.10;87.60;;;;;;5004634;28;20476;-78
2022/10/28 08:40:09;;;;;;;17.10;9.80;;;15.20;87.70;;;;;;4997985;28;20465;-79
2022/10/28 08:42:44;;;;;;;17.70;10.47;;;15.20;87.70;;;;;;4995337;28;20861;-78
2022/10/28 08:45:30;;;;;;;18.40;10.37;;;15.20;87.70;;;;;;5001724;28;20969;-78
2022/10/28 08:48:12;;;;;;;16.60;10.40;;;15.20;87.70;;;;;;4998638;28;20457;-77
2022/10/28 08:50:52;;;;;;;15.63;10.50;;;15.20;87.80;;;;;;5000432;28;20481;-79
2022/10/28 08:53:24;;;;;;;21.90;9.77;;;15.20;87.90;;;;;;4999884;28;20511;-78
2022/10/28 08:55:55;;;;;;;14.47;10.37;;;15.20;87.90;;;;;;5005387;28;20480;-77
2022/10/28 08:58:27;;;;;;;17.27;10.60;;;15.20;87.90;;;;;;5003570;28;20468;-78
2022/10/28 09:00:58;;;;;;;15.93;9.77;;;15.20;87.90;;;;;;5016030;28;20496;-77
2022/10/28 09:03:31;;;;;;;14.07;10.07;;;15.30;87.90;;;;;;5018462;28;20460;-79
2022/10/28 09:06:05;;;;;;;18.43;11.47;;;15.30;87.90;;;;;;5004143;28;20870;-79
2022/10/28 09:08:36;;;;;;;17.83;11.50;;;15.30;87.90;;;;;;4999255;28;20457;-79
2022/10/28 09:11:16;;;;;;;23.63;11.17;;;15.30;87.90;;;;;;5004674;28;20523;-76
2022/10/28 09:13:54;;;;;;;15.30;11.20;;;15.30;87.90;;;;;;4998652;28;20453;-78
2022/10/28 09:16:34;;;;;;;14.00;10.20;;;15.30;87.90;;;;;;5005579;28;20476;-78
2022/10/28 09:19:08;;;;;;;16.33;11.60;;;15.30;88.10;;;;;;5008799;28;20452;-79
2022/10/28 09:21:45;;;;;;;20.27;11.47;;;15.30;88.20;;;;;;5015830;28;20521;-78
2022/10/28 09:24:18;;;;;;;19.00;11.27;;;15.40;88.30;;;;;;5002327;28;20439;-78
2022/10/28 09:26:55;;;;;;;19.93;12.47;;;15.40;88.30;;;;;;5004415;28;20451;-79
2022/10/28 09:29:37;;;;;;;22.73;11.73;;;15.50;88.30;;;;;;5002695;28;20523;-79
2022/10/28 09:32:22;;;;;;;17.90;11.33;;;15.50;88.40;;;;;;4996911;28;21204;-77
2022/10/28 09:34:56;;;;;;;17.20;11.50;;;15.60;88.30;;;;;;4999565;28;20498;-78
2022/10/28 09:37:29;;;;;;;18.77;11.30;;;15.60;88.40;;;;;;4999558;28;20473;-78
2022/10/28 09:40:02;;;;;;;14.53;11.37;;;15.70;88.40;;;;;;5000318;28;20466;-79
2022/10/28 09:42:40;;;;;;;17.97;11.20;;;15.80;88.40;;;;;;4997409;28;20676;-77
2022/10/28 09:45:17;;;;;;;16.17;10.33;;;15.80;88.40;;;;;;5002486;28;20476;-79
2022/10/28 09:47:58;;;;;;;16.83;11.10;;;15.80;88.40;;;;;;4999917;28;20456;-77
2022/10/28 09:50:29;;;;;;;16.87;11.70;;;15.90;88.40;;;;;;4996804;28;20493;-79
2022/10/28 09:53:04;;;;;;;16.20;10.90;;;15.90;88.50;;;;;;4995544;28;20457;-79
2022/10/28 09:55:32;;;;;;;14.30;9.90;;;15.90;88.50;;;;;;4997715;28;21369;-79
2022/10/28 09:58:02;;;;;;;15.90;10.30;;;16.00;88.50;;;;;;4998736;28;20515;-78
2022/10/28 10:00:31;;;;;;;14.40;10.87;;;16.00;88.50;;;;;;4998442;28;20496;-78
2022/10/28 10:03:00;;;;;;;16.70;11.20;;;16.00;88.50;;;;;;4996412;28;20453;-77
2022/10/28 10:05:30;;;;;;;16.80;10.70;;;16.10;88.50;;;;;;4993767;28;20572;-79
2022/10/28 10:08:03;;;;;;;17.30;10.50;;;16.10;88.50;;;;;;5003576;28;21290;-79
2022/10/28 10:10:36;;;;;;;16.50;10.30;;;16.10;88.50;;;;;;4992394;28;20481;-79
2022/10/28 10:13:06;;;;;;;15.30;9.23;;;16.10;88.50;;;;;;4998328;28;20457;-79
2022/10/28 10:15:39;;;;;;;16.33;9.53;;;16.20;88.60;;;;;;5000156;28;20480;-77
2022/10/28 10:18:16;;;;;;;14.37;10.03;;;16.20;88.60;;;;;;4995595;28;20456;-77
2022/10/28 10:20:50;;;;;;;14.70;10.03;;;16.20;88.60;;;;;;4999697;28;20568;-77
2022/10/28 10:23:23;;;;;;;14.83;9.23;;;16.20;88.70;;;;;;4994494;28;20457;-77
2022/10/28 10:25:57;;;;;;;14.60;9.67;;;16.30;88.70;;;;;;5002836;28;20492;-79
2022/10/28 10:28:26;;;;;;;14.20;9.20;;;16.30;88.70;;;;;;5001583;28;20452;-78
2022/10/28 10:30:57;;;;;;;19.70;9.80;;;16.30;88.70;;;;;;4996677;28;20477;-78
2022/10/28 10:33:31;;;;;;;17.73;10.67;;;16.30;88.70;;;;;;4998516;28;20896;-77
2022/10/28 10:36:02;;;;;;;14.70;9.57;;;16.30;88.70;;;;;;4999987;28;20483;-79
2022/10/28 10:38:31;;;;;;;15.10;10.40;;;16.40;88.70;;;;;;5002657;28;21053;-77
2022/10/28 10:40:59;;;;;;;18.10;10.80;;;16.40;88.70;;;;;;5001639;28;20456;-78
2022/10/28 10:43:31;;;;;;;12.80;9.33;;;16.40;88.80;;;;;;5017630;28;20717;-78
2022/10/28 10:46:01;;;;;;;18.73;9.27;;;16.40;88.80;;;;;;5007706;28;20834;-79
2022/10/28 10:48:34;;;;;;;12.73;9.20;;;16.40;88.80;;;;;;5003306;28;20457;-78
2022/10/28 10:51:08;;;;;;;17.73;9.70;;;16.50;88.80;;;;;;5006785;28;20531;-77
2022/10/28 10:53:37;;;;;;;16.07;9.70;;;16.50;88.90;;;;;;5007794;28;20448;-79
2022/10/28 10:56:09;;;;;;;13.60;9.57;;;16.50;89.00;;;;;;5007083;28;20484;-77
2022/10/28 10:58:40;;;;;;;14.20;9.80;;;16.60;89.00;;;;;;5011685;28;20445;-77
2022/10/28 11:01:16;;;;;;;17.07;10.87;;;16.60;89.00;;;;;;5016798;28;20523;-78
2022/10/28 11:03:50;;;;;;;15.00;10.03;;;16.70;89.00;;;;;;5010283;28;20548;-77
2022/10/28 11:06:23;;;;;;;16.20;10.47;;;16.70;89.00;;;;;;5004224;28;20540;-79
2022/10/28 11:08:58;;;;;;;17.10;9.10;;;16.70;89.00;;;;;;5005275;28;20464;-78
2022/10/28 11:11:33;;;;;;;15.37;10.50;;;16.70;88.90;;;;;;5001972;28;20558;-78
2022/10/28 11:14:07;;;;;;;15.07;9.20;;;16.70;88.90;;;;;;5001160;28;21277;-78
2022/10/28 11:16:48;;;;;;;15.40;9.67;;;16.80;89.00;;;;;;5006166;28;20455;-78
2022/10/28 11:19:21;;;;;;;13.67;8.20;;;16.80;89.00;;;;;;5005773;28;20464;-78
2022/10/28 11:22:02;;;;;;;14.93;9.00;;;16.80;89.00;;;;;;5002216;28;20453;-79
2022/10/28 11:24:54;;;;;;;17.73;9.23;;;16.80;89.10;;;;;;5001323;28;20568;-79
2022/10/28 11:27:36;;;;;;;15.37;8.70;;;16.90;89.20;;;;;;5002226;28;20453;-77
2022/10/28 11:30:10;;;;;;;14.17;9.47;;;16.90;89.20;;;;;;5003009;28;20448;-80
2022/10/28 11:32:55;;;;;;;12.13;8.23;;;17.00;89.20;;;;;;5002249;28;20477;-77
2022/10/28 11:35:56;;;;;;;15.93;8.73;;;17.00;89.20;;;;;;5002560;28;20571;-79
2022/10/28 11:38:37;;;;;;;19.27;8.60;;;17.00;89.20;;;;;;5003792;28;20994;-79
2022/10/28 11:41:20;;;;;;;16.73;9.33;;;17.10;89.20;;;;;;5019886;28;20461;-78
2022/10/28 11:43:52;;;;;;;15.73;9.30;;;17.10;89.30;;;;;;5006019;28;20468;-79
2022/10/28 11:46:36;;;;;;;12.40;9.07;;;17.10;89.30;;;;;;5001065;28;20480;-77
2022/10/28 11:49:30;;;;;;;14.20;8.53;;;17.20;89.30;;;;;;5004240;28;20445;-79
2022/10/28 11:52:07;;;;;;;13.80;8.70;;;17.20;89.20;;;;;;5007747;28;20546;-79
2022/10/28 11:54:45;;;;;;;16.43;9.20;;;17.20;89.20;;;;;;5002435;28;20488;-79
2022/10/28 11:57:15;;;;;;;16.80;9.03;;;17.20;89.20;;;;;;5021862;28;20461;-79
2022/10/28 12:00:08;;;;;;;15.70;8.87;;;17.30;89.40;;;;;;5002062;28;20504;-78
2022/10/28 12:02:58;;;;;;;15.53;9.93;;;17.30;89.50;;;;;;5005117;28;20460;-78
2022/10/28 12:05:33;;;;;;;12.30;7.63;;;17.40;89.60;;;;;;5005744;28;20560;-77
2022/10/28 12:08:15;;;;;;;14.60;7.50;;;17.40;89.40;;;;;;5008282;28;20759;-79
2022/10/28 12:11:00;;;;;;;13.90;8.37;;;17.40;89.30;;;;;;5001050;28;20519;-78
2022/10/28 12:13:37;;;;;;;11.63;8.30;;;17.50;89.40;;;;;;5000510;28;20464;-79
2022/10/28 12:16:12;;;;;;;10.23;7.37;;;17.50;89.50;;;;;;5015390;28;20484;-77
2022/10/28 12:18:50;;;;;;;18.10;8.10;;;17.60;89.50;;;;;;5005320;28;20448;-77
2022/10/28 12:21:27;;;;;;;12.57;6.93;;;17.60;89.60;;;;;;5003286;28;21021;-77
2022/10/28 12:23:58;;;;;;;12.80;6.10;;;17.70;89.60;;;;;;5003631;28;20452;-78
2022/10/28 12:26:35;;;;;;;12.00;6.30;;;17.80;89.60;;;;;;4994943;28;20480;-77
2022/10/28 12:29:09;;;;;;;12.47;8.10;;;17.90;89.60;;;;;;5005304;28;20456;-76
2022/10/28 12:31:42;;;;;;;13.63;6.53;;;18.00;89.60;;;;;;5000536;28;20484;-79
2022/10/28 12:34:15;;;;;;;10.13;6.30;;;18.10;89.70;;;;;;5003918;28;20560;-78
2022/10/28 12:36:49;;;;;;;13.77;6.23;;;18.20;89.60;;;;;;5003798;28;20465;-79
2022/10/28 12:39:24;;;;;;;17.40;8.20;;;18.30;89.50;;;;;;5001163;28;20515;-78
2022/10/28 12:41:58;;;;;;;11.63;6.67;;;18.40;89.30;;;;;;5002934;28;20452;-77
2022/10/28 12:44:28;;;;;;;11.27;6.33;;;18.50;89.20;;;;;;5017448;28;21042;-78
2022/10/28 12:47:04;;;;;;;8.97;5.57;;;18.50;89.20;;;;;;5017675;28;20974;-78
2022/10/28 12:49:44;;;;;;;11.27;5.63;;;18.60;89.20;;;;;;4998668;28;20819;-78
2022/10/28 12:52:24;;;;;;;8.37;4.90;;;18.60;89.10;;;;;;4997235;28;20997;-78
2022/10/28 12:54:59;;;;;;;14.93;5.23;;;18.70;89.00;;;;;;5004003;28;20512;-78
2022/10/28 12:57:33;;;;;;;10.33;4.83;;;18.80;89.00;;;;;;5002135;28;20479;-77
2022/10/28 13:00:04;;;;;;;11.47;3.87;;;18.90;88.80;;;;;;5001294;28;20476;-78